Time;durP1;ratioP1;P1;durP2;ratioP2;P2;SDS_P1;SDS_P2;PMS_P1;PMS_P2;Temp;Humidity;BMP_temperature;BMP_pressure;BME280_temperature;BME280_humidity;BME280_pressure;Samples;Min_cycle;Max_cycle;Signal;HPM_P1;HPM_P2
2022/04/11 00:00:35;;;;;;;1.83;1.73;;;;;;;8.11;100.00;98775.44;5111837;28;20214;-51
2022/04/11 00:03:02;;;;;;;1.40;1.40;;;;;;;8.15;100.00;98771.84;5112230;28;20273;-50
2022/04/11 00:05:28;;;;;;;1.80;1.70;;;;;;;8.14;100.00;98777.91;5111678;28;20194;-51
2022/04/11 00:07:55;;;;;;;1.83;1.73;;;;;;;8.14;100.00;98785.66;5111370;28;20671;-51
2022/04/11 00:10:24;;;;;;;2.13;1.60;;;;;;;8.16;100.00;98786.47;5111658;28;20589;-51
2022/04/11 00:12:51;;;;;;;1.80;1.70;;;;;;;8.12;100.00;98793.50;5111597;28;20217;-51
2022/04/11 00:15:18;;;;;;;1.80;1.70;;;;;;;8.16;100.00;98796.81;5111700;28;20190;-50
2022/04/11 00:17:45;;;;;;;2.10;1.90;;;;;;;8.21;100.00;98793.22;5111696;28;20692;-52
2022/04/11 00:20:12;;;;;;;1.83;1.73;;;;;;;8.22;100.00;98796.66;5111472;28;20586;-51
2022/04/11 00:22:39;;;;;;;1.80;1.70;;;;;;;8.23;100.00;98800.91;5111773;28;20194;-52
2022/04/11 00:25:06;;;;;;;1.70;1.60;;;;;;;8.27;100.00;98798.19;5111552;28;20195;-53
2022/04/11 00:27:34;;;;;;;1.80;1.70;;;;;;;8.26;100.00;98803.38;5111000;28;20246;-54
2022/04/11 00:30:01;;;;;;;1.77;1.67;;;;;;;8.24;100.00;98808.59;5111477;28;20198;-54
2022/04/11 00:32:28;;;;;;;1.83;1.73;;;;;;;8.23;100.00;98806.09;5111104;28;20209;-52
2022/04/11 00:34:55;;;;;;;1.97;1.87;;;;;;;8.23;100.00;98817.28;5111282;28;20317;-52
2022/04/11 00:37:22;;;;;;;2.03;1.93;;;;;;;8.22;100.00;98812.16;5111218;28;20217;-51
2022/04/11 00:39:49;;;;;;;2.17;2.07;;;;;;;8.24;100.00;98818.13;5111079;28;20190;-54
2022/04/11 00:42:16;;;;;;;2.27;2.10;;;;;;;8.23;100.00;98831.94;5110965;28;20194;-53
2022/04/11 00:44:44;;;;;;;2.00;1.90;;;;;;;8.23;100.00;98835.38;5110786;28;20198;-52
2022/04/11 00:47:11;;;;;;;2.27;1.93;;;;;;;8.18;100.00;98839.81;5111403;28;20578;-51
2022/04/11 00:49:38;;;;;;;2.13;2.03;;;;;;;8.22;100.00;98848.34;5111076;28;20190;-52
2022/04/11 00:52:07;;;;;;;2.30;2.20;;;;;;;8.25;100.00;98850.81;5110924;28;20597;-51
2022/04/11 00:54:34;;;;;;;2.20;2.10;;;;;;;8.26;100.00;98853.34;5110612;28;20214;-51
2022/04/11 00:57:02;;;;;;;2.57;2.40;;;;;;;8.24;100.00;98849.16;5110956;28;20205;-51
2022/04/11 00:59:29;;;;;;;2.57;2.37;;;;;;;8.35;100.00;98858.28;5110975;28;20568;-52
2022/04/11 01:01:57;;;;;;;2.60;2.50;;;;;;;8.26;100.00;98860.25;5110830;28;20218;-52
2022/04/11 01:04:24;;;;;;;2.20;2.10;;;;;;;8.19;100.00;98854.44;5111131;28;20599;-51
2022/04/11 01:06:51;;;;;;;2.30;2.20;;;;;;;8.20;100.00;98857.88;5110726;28;20194;-52
2022/04/11 01:09:18;;;;;;;2.17;2.07;;;;;;;8.19;100.00;98867.38;5110536;28;20594;-51
2022/04/11 01:11:45;;;;;;;2.20;2.10;;;;;;;8.16;100.00;98872.63;5110893;28;20278;-51
2022/04/11 01:14:12;;;;;;;1.90;1.80;;;;;;;8.17;100.00;98873.47;5110952;28;20666;-53
2022/04/11 01:16:39;;;;;;;1.83;1.73;;;;;;;8.14;100.00;98876.97;5110679;28;20201;-50
2022/04/11 01:19:07;;;;;;;1.77;1.73;;;;;;;8.11;100.00;98878.81;5110285;28;20197;-52
2022/04/11 01:21:35;;;;;;;2.00;1.90;;;;;;;8.24;100.00;98877.59;5109826;28;20692;-52
2022/04/11 01:24:02;;;;;;;1.87;1.77;;;;;;;8.19;100.00;98900.13;5110906;28;20209;-52
2022/04/11 01:26:31;;;;;;;1.60;1.60;;;;;;;8.14;100.00;98900.25;5110239;28;20226;-53
2022/04/11 01:28:58;;;;;;;2.07;1.97;;;;;;;8.25;100.00;98898.19;5110443;28;20190;-53
2022/04/11 01:31:26;;;;;;;1.73;1.63;;;;;;;8.16;100.00;98895.88;5110431;28;20191;-52
2022/04/11 01:33:53;;;;;;;2.00;1.90;;;;;;;8.23;100.00;98894.81;5110453;28;20221;-54
2022/04/11 01:36:20;;;;;;;2.10;2.00;;;;;;;8.20;100.00;98897.50;5110130;28;20666;-53
2022/04/11 01:38:48;;;;;;;2.13;2.03;;;;;;;8.19;100.00;98910.47;5110309;28;20190;-53
2022/04/11 01:41:15;;;;;;;2.00;1.90;;;;;;;8.12;100.00;98911.53;5110295;28;20309;-54
2022/04/11 01:43:42;;;;;;;1.87;1.77;;;;;;;8.21;100.00;98906.09;5110655;28;20688;-54
2022/04/11 01:46:09;;;;;;;1.93;1.83;;;;;;;8.26;100.00;98906.78;5110475;28;20217;-53
2022/04/11 01:48:36;;;;;;;2.00;1.90;;;;;;;8.29;100.00;98919.66;5110052;28;20209;-50
2022/04/11 01:51:03;;;;;;;2.00;1.90;;;;;;;8.25;100.00;98918.03;5110267;28;20205;-51
2022/04/11 01:53:30;;;;;;;2.03;1.93;;;;;;;8.19;100.00;98910.47;5110177;28;20202;-54
2022/04/11 01:55:58;;;;;;;1.90;1.80;;;;;;;8.21;100.00;98919.88;5110332;28;20194;-53
2022/04/11 01:58:25;;;;;;;1.87;1.77;;;;;;;8.21;100.00;98926.78;5110093;28;20210;-54
2022/04/11 02:00:52;;;;;;;2.10;2.00;;;;;;;8.14;100.00;98931.25;5110234;28;20610;-54
2022/04/11 02:03:19;;;;;;;2.50;2.40;;;;;;;8.12;100.00;98934.81;5110010;28;20205;-54
2022/04/11 02:05:46;;;;;;;2.60;2.50;;;;;;;8.12;100.00;98938.25;5110209;28;20194;-53
2022/04/11 02:08:13;;;;;;;2.50;2.40;;;;;;;8.13;100.00;98944.22;5110296;28;20216;-52
2022/04/11 02:10:40;;;;;;;2.50;2.30;;;;;;;7.95;100.00;98940.41;5110249;28;20229;-53
2022/04/11 02:13:09;;;;;;;2.80;2.60;;;;;;;8.06;100.00;98958.22;5110313;28;20198;-53
2022/04/11 02:15:36;;;;;;;2.13;2.03;;;;;;;7.98;100.00;98961.03;5109949;28;20191;-53
2022/04/11 02:18:04;;;;;;;2.60;2.43;;;;;;;8.01;100.00;98966.13;5109928;28;20603;-53
2022/04/11 02:20:31;;;;;;;2.90;2.70;;;;;;;8.01;100.00;98968.69;5109783;28;20203;-52
2022/04/11 02:22:59;;;;;;;2.60;2.50;;;;;;;8.07;100.00;98967.66;5109864;28;20251;-52
2022/04/11 02:25:29;;;;;;;2.37;2.27;;;;;;;8.10;100.00;98983.09;5109818;28;20281;-51
2022/04/11 02:27:57;;;;;;;2.57;2.47;;;;;;;8.17;100.00;98982.88;5109761;28;20285;-52
2022/04/11 02:30:26;;;;;;;2.80;2.60;;;;;;;8.25;100.00;98995.59;5109798;28;20234;-53
2022/04/11 02:32:54;;;;;;;3.03;2.83;;;;;;;8.26;100.00;98999.88;5113683;28;20198;-52
2022/04/11 02:35:21;;;;;;;3.03;2.73;;;;;;;8.26;100.00;98997.28;5113748;28;20230;-52
2022/04/11 02:37:49;;;;;;;2.97;2.67;;;;;;;8.26;100.00;99005.03;5113889;28;20225;-51
2022/04/11 02:40:16;;;;;;;3.07;2.80;;;;;;;8.28;100.00;99017.03;5113490;28;20588;-51
2022/04/11 02:42:44;;;;;;;3.10;2.90;;;;;;;8.26;100.00;99015.38;5113344;28;20218;-52
2022/04/11 02:45:12;;;;;;;2.80;2.70;;;;;;;8.30;100.00;99029.94;5113546;28;20662;-52
2022/04/11 02:47:41;;;;;;;2.83;2.63;;;;;;;8.31;100.00;99031.63;5113537;28;20194;-53
2022/04/11 02:50:09;;;;;;;3.00;2.80;;;;;;;8.22;100.00;99031.88;5113309;28;20198;-53
2022/04/11 02:52:36;;;;;;;3.03;2.83;;;;;;;8.31;100.00;99047.13;5113254;28;20642;-53
2022/04/11 02:55:04;;;;;;;2.80;2.70;;;;;;;8.41;100.00;99051.19;5113309;28;20195;-53
2022/04/11 02:57:31;;;;;;;3.10;2.90;;;;;;;8.35;100.00;99053.97;5112957;28;20198;-54
2022/04/11 02:59:58;;;;;;;2.97;2.77;;;;;;;8.31;100.00;99055.78;5113117;28;20190;-53
2022/04/11 03:02:25;;;;;;;3.13;2.93;;;;;;;8.32;100.00;99060.06;5112900;28;20644;-54
2022/04/11 03:04:54;;;;;;;3.50;3.30;;;;;;;8.33;100.00;99064.34;5113580;28;20274;-53
2022/04/11 03:07:21;;;;;;;3.13;2.93;;;;;;;8.28;100.00;99066.16;5113120;28;20562;-52
2022/04/11 03:09:48;;;;;;;3.07;2.87;;;;;;;8.22;100.00;99068.06;5112620;28;20202;-53
2022/04/11 03:12:15;;;;;;;3.07;2.87;;;;;;;8.14;100.00;99078.59;5119345;27;20274;-53
2022/04/11 03:14:42;;;;;;;3.57;3.37;;;;;;;8.10;100.00;99078.72;5122592;27;20190;-53
2022/04/11 03:17:09;;;;;;;3.60;3.30;;;;;;;8.16;100.00;99094.06;5121067;27;20652;-53
2022/04/11 03:19:36;;;;;;;3.30;3.10;;;;;;;8.19;100.00;99091.41;5118574;27;20286;-53
2022/04/11 03:22:05;;;;;;;2.97;2.77;;;;;;;8.09;100.00;99084.78;5112465;28;20612;-53
2022/04/11 03:24:32;;;;;;;2.60;2.40;;;;;;;8.13;100.00;99091.56;5118787;27;20187;-53
2022/04/11 03:26:58;;;;;;;2.90;2.70;;;;;;;8.09;100.00;99108.03;5120399;27;20225;-53
2022/04/11 03:29:25;;;;;;;3.33;3.07;;;;;;;8.11;100.00;99107.13;5122131;27;20191;-53
2022/04/11 03:31:52;;;;;;;3.83;3.20;;;;;;;8.16;100.00;99105.25;5120598;27;20281;-53
2022/04/11 03:34:19;;;;;;;3.63;2.80;;;;;;;8.17;100.00;99106.97;5121815;27;20258;-52
2022/04/11 03:36:46;;;;;;;3.40;3.20;;;;;;;8.11;100.00;99114.03;5122113;27;20193;-52
2022/04/11 03:39:15;;;;;;;2.80;2.60;;;;;;;8.15;100.00;99123.38;5120841;27;20684;-51
2022/04/11 03:41:43;;;;;;;2.80;2.60;;;;;;;8.22;100.00;99130.13;5113607;27;20228;-50
2022/04/11 03:44:11;;;;;;;2.47;2.30;;;;;;;8.10;100.00;99125.25;5116772;27;20196;-50
2022/04/11 03:46:38;;;;;;;3.43;2.40;;;;;;;8.15;100.00;99138.91;5119454;27;20194;-52
2022/04/11 03:49:05;;;;;;;2.70;2.50;;;;;;;8.16;100.00;99140.59;5123681;27;20278;-54
2022/04/11 03:51:32;;;;;;;2.90;2.70;;;;;;;8.01;100.00;99136.69;5120324;27;20718;-52
2022/04/11 03:53:59;;;;;;;2.87;2.67;;;;;;;8.02;100.00;99141.78;5119644;27;20235;-52
2022/04/11 03:56:28;;;;;;;3.50;3.10;;;;;;;8.11;100.00;99147.63;5121759;27;20200;-50
2022/04/11 03:58:55;;;;;;;2.67;2.47;;;;;;;8.07;100.00;99148.59;5121207;27;20593;-51
2022/04/11 04:01:22;;;;;;;3.30;3.00;;;;;;;8.07;100.00;99146.00;5118486;27;20225;-52
2022/04/11 04:03:48;;;;;;;3.07;2.87;;;;;;;7.96;100.00;99152.28;5116378;27;20581;-53
2022/04/11 04:06:15;;;;;;;3.00;2.70;;;;;;;7.95;100.00;99157.47;5120557;27;20199;-54
2022/04/11 04:08:42;;;;;;;2.77;2.57;;;;;;;7.83;100.00;99168.94;5119541;27;20199;-54
2022/04/11 04:11:10;;;;;;;3.43;2.27;;;;;;;7.82;100.00;99169.84;5110943;27;20213;-54
2022/04/11 04:13:38;;;;;;;2.73;2.53;;;;;;;7.84;100.00;99175.81;5107952;27;20215;-54
2022/04/11 04:16:06;;;;;;;2.30;2.20;;;;;;;7.86;100.00;99174.06;5114986;27;20228;-53
2022/04/11 04:18:33;;;;;;;2.00;1.90;;;;;;;7.85;100.00;99174.94;5124191;27;20751;-53
2022/04/11 04:21:00;;;;;;;2.03;1.90;;;;;;;7.83;100.00;99187.03;5118550;27;20217;-54
2022/04/11 04:23:27;;;;;;;2.80;2.13;;;;;;;7.80;100.00;99186.25;5120201;27;20214;-53
2022/04/11 04:25:54;;;;;;;2.83;2.00;;;;;;;7.84;100.00;99195.66;5118264;27;20725;-53
2022/04/11 04:28:21;;;;;;;2.10;1.90;;;;;;;7.85;100.00;99197.34;5113501;27;20242;-54
2022/04/11 04:30:49;;;;;;;1.60;1.50;;;;;;;7.93;100.00;99203.19;5113865;27;20217;-53
2022/04/11 04:33:16;;;;;;;1.80;1.70;;;;;;;7.91;100.00;99203.22;5120235;27;20225;-52
2022/04/11 04:35:43;;;;;;;1.40;1.30;;;;;;;8.00;100.00;99209.91;5108929;28;20646;-52
2022/04/11 04:38:10;;;;;;;1.50;1.40;;;;;;;8.15;100.00;99212.13;5109969;28;20500;-52
2022/04/11 04:40:37;;;;;;;2.37;1.50;;;;;;;8.24;100.00;99211.06;5110280;28;20190;-53
2022/04/11 04:43:04;;;;;;;1.83;1.73;;;;;;;8.19;100.00;99224.09;5110782;28;20214;-52
2022/04/11 04:45:31;;;;;;;2.90;1.80;;;;;;;8.18;100.00;99218.97;5110890;28;20240;-54
2022/04/11 04:47:59;;;;;;;2.10;1.90;;;;;;;8.21;100.00;99229.25;5110896;28;20201;-53
2022/04/11 04:50:26;;;;;;;3.60;1.70;;;;;;;8.13;100.00;99229.41;5111003;28;20620;-52
2022/04/11 04:52:53;;;;;;;1.67;1.57;;;;;;;8.04;100.00;99219.28;5111118;28;20195;-52
2022/04/11 04:55:20;;;;;;;1.50;1.40;;;;;;;8.10;100.00;99233.81;5111885;27;20289;-52
2022/04/11 04:57:47;;;;;;;1.53;1.43;;;;;;;8.22;100.00;99230.94;5114142;27;20201;-52
2022/04/11 05:00:14;;;;;;;1.50;1.27;;;;;;;8.35;100.00;99242.72;5110814;28;20201;-52
2022/04/11 05:02:43;;;;;;;1.47;0.87;;;;;;;8.33;100.00;99249.66;5110617;28;20225;-52
2022/04/11 05:05:14;;;;;;;1.00;0.70;;;;;;;8.51;100.00;99261.28;5110721;28;20195;-52
2022/04/11 05:07:41;;;;;;;0.73;0.70;;;;;;;8.61;100.00;99263.63;5110577;28;20194;-53
2022/04/11 05:10:09;;;;;;;0.70;0.60;;;;;;;8.63;100.00;99264.44;5107429;28;20226;-52
2022/04/11 05:12:40;;;;;;;0.70;0.70;;;;;;;8.70;100.00;99272.88;5115584;27;20218;-52
2022/04/11 05:15:08;;;;;;;0.70;0.70;;;;;;;8.62;100.00;99269.63;5111795;27;20233;-52
2022/04/11 05:17:35;;;;;;;0.70;0.70;;;;;;;8.76;100.00;99259.81;5124004;27;20673;-52
2022/04/11 05:20:02;;;;;;;0.80;0.80;;;;;;;8.80;100.00;99264.03;5130787;27;20214;-52
2022/04/11 05:22:30;;;;;;;0.70;0.70;;;;;;;8.83;100.00;99266.50;5130705;27;20627;-52
2022/04/11 05:24:57;;;;;;;0.97;0.63;;;;;;;9.02;100.00;99261.72;5129962;27;20721;-52
2022/04/11 05:27:24;;;;;;;1.37;1.30;;;;;;;9.83;100.00;99265.44;5130542;28;20722;-51
2022/04/11 05:29:51;;;;;;;0.73;0.73;;;;;;;11.09;100.00;99263.97;5130389;27;20731;-52
2022/04/11 05:32:20;;;;;;;1.67;0.63;;;;;;;11.50;100.00;99269.47;5124088;28;20211;-53
2022/04/11 05:34:46;;;;;;;1.00;0.83;;;;;;;12.28;95.98;99270.81;5114549;28;20818;-54
2022/04/11 05:37:13;;;;;;;1.20;0.97;;;;;;;12.40;93.57;99266.88;5118138;28;20516;-53
2022/04/11 05:39:42;;;;;;;1.00;0.80;;;;;;;12.20;94.44;99272.84;5118022;28;20218;-53
2022/04/11 05:42:09;;;;;;;0.77;0.70;;;;;;;11.75;93.27;99275.44;5125737;28;20236;-53
2022/04/11 05:44:36;;;;;;;0.80;0.80;;;;;;;11.65;93.83;99274.06;5128597;27;20236;-54
2022/04/11 05:47:03;;;;;;;0.50;0.50;;;;;;;11.61;94.81;99278.56;5110126;28;20214;-53
2022/04/11 05:49:30;;;;;;;0.57;0.57;;;;;;;12.32;92.15;99282.78;5109664;28;20309;-54
2022/04/11 05:51:57;;;;;;;2.77;1.40;;;;;;;14.23;85.77;99274.47;5110017;28;20225;-53
2022/04/11 05:54:24;;;;;;;1.60;1.50;;;;;;;16.59;75.57;99265.59;5109704;28;20222;-53
2022/04/11 05:56:52;;;;;;;0.77;0.70;;;;;;;17.91;66.27;99276.03;5109345;28;20548;-53
2022/04/11 05:59:19;;;;;;;0.60;0.60;;;;;;;18.39;62.51;99273.84;5109424;28;20275;-53
2022/04/11 06:01:46;;;;;;;0.70;0.70;;;;;;;18.09;63.31;99293.25;5109832;28;20706;-53
2022/04/11 06:04:13;;;;;;;0.70;0.70;;;;;;;17.56;63.07;99279.94;5109618;28;20698;-52
2022/04/11 06:06:40;;;;;;;1.10;1.00;;;;;;;18.01;62.45;99278.91;5111343;28;20224;-52
2022/04/11 06:09:07;;;;;;;0.60;0.60;;;;;;;18.92;59.84;99282.66;5113509;28;20318;-52
2022/04/11 06:11:34;;;;;;;0.90;0.90;;;;;;;19.54;54.35;99274.00;5112936;28;20221;-53
2022/04/11 06:14:02;;;;;;;0.90;0.90;;;;;;;19.94;51.82;99276.47;5115910;27;20218;-52
2022/04/11 06:16:29;;;;;;;1.65;1.35;;;;;;;19.72;53.05;99285.03;5112699;28;20714;-53
2022/04/11 06:18:56;;;;;;;2.03;1.02;;;;;;;20.57;50.53;99286.81;5124931;27;20193;-53
2022/04/11 06:21:23;;;;;;;1.58;1.08;;;;;;;21.63;47.78;99287.63;5114269;27;20205;-53
2022/04/11 06:23:50;;;;;;;0.90;0.90;;;;;;;21.40;47.42;99294.69;5113490;28;20610;-53
2022/04/11 06:26:17;;;;;;;0.90;0.85;;;;;;;19.61;51.49;99292.84;5119828;27;20269;-52
2022/04/11 06:28:44;;;;;;;2.53;1.00;;;;;;;17.94;54.81;99302.09;5134300;27;20689;-52
2022/04/11 06:31:14;;;;;;;0.80;0.80;;;;;;;16.88;58.49;99295.38;5134064;27;20198;-53
2022/04/11 06:33:41;;;;;;;1.10;1.10;;;;;;;16.10;60.39;99299.75;5134245;27;20695;-53
2022/04/11 06:36:09;;;;;;;1.30;1.20;;;;;;;15.60;62.21;99307.69;5134065;27;20636;-53
2022/04/11 06:38:36;;;;;;;2.00;0.80;;;;;;;16.52;60.60;99308.78;5133687;27;20193;-53
2022/04/11 06:41:03;;;;;;;0.70;0.70;;;;;;;18.37;55.37;99316.00;5131257;27;20194;-53
2022/04/11 06:43:30;;;;;;;0.85;0.80;;;;;;;20.59;50.02;99318.34;5120701;27;20217;-53
2022/04/11 06:45:57;;;;;;;1.20;1.00;;;;;;;21.72;48.07;99322.06;5118664;27;20187;-53
2022/04/11 06:48:25;;;;;;;3.58;1.10;;;;;;;22.09;46.25;99327.16;5121969;27;20627;-54
2022/04/11 06:50:53;;;;;;;1.52;1.10;;;;;;;20.28;49.58;99333.72;5132781;27;20651;-54
2022/04/11 06:53:20;;;;;;;1.20;1.10;;;;;;;19.53;51.95;99326.75;5133932;27;20690;-53
2022/04/11 06:55:48;;;;;;;1.27;1.20;;;;;;;19.29;52.57;99328.41;5128162;27;20200;-55
2022/04/11 06:58:16;;;;;;;1.55;0.88;;;;;;;18.45;51.63;99341.78;5123981;27;20193;-54
2022/04/11 07:00:43;;;;;;;1.95;1.33;;;;;;;18.84;53.21;99346.28;5122512;27;20195;-53
2022/04/11 07:03:10;;;;;;;1.23;1.13;;;;;;;20.29;49.73;99355.66;5121901;27;20214;-53
2022/04/11 07:05:39;;;;;;;0.80;0.80;;;;;;;21.80;44.98;99350.53;5123371;27;20196;-53
2022/04/11 07:08:08;;;;;;;1.90;0.93;;;;;;;21.21;44.34;99357.75;5123043;27;20677;-53
2022/04/11 07:10:37;;;;;;;1.20;0.90;;;;;;;19.21;48.02;99369.22;5121285;27;20576;-52
2022/04/11 07:13:04;;;;;;;1.48;1.10;;;;;;;17.81;53.13;99374.69;5122625;27;20190;-52
2022/04/11 07:15:32;;;;;;;3.37;1.10;;;;;;;16.45;56.29;99368.53;5123576;27;20197;-52
2022/04/11 07:17:59;;;;;;;1.30;1.20;;;;;;;15.48;59.47;99381.53;5117646;27;20722;-53
2022/04/11 07:20:26;;;;;;;1.30;1.30;;;;;;;14.88;61.48;99386.28;5122427;27;20642;-52
2022/04/11 07:22:54;;;;;;;2.20;1.07;;;;;;;14.42;62.67;99387.63;5123347;27;20218;-52
2022/04/11 07:25:23;;;;;;;1.83;1.30;;;;;;;13.99;64.33;99392.16;5121653;27;20665;-52
2022/04/11 07:27:50;;;;;;;1.40;1.30;;;;;;;13.65;66.77;99399.78;5079986;28;20222;-52
2022/04/11 07:30:17;;;;;;;3.23;1.83;;;;;;;13.42;68.07;99399.00;5081547;28;20206;-52
2022/04/11 07:32:44;;;;;;;2.73;1.40;;;;;;;13.26;67.67;99397.94;5080114;28;20189;-52
2022/04/11 07:35:11;;;;;;;2.83;1.10;;;;;;;12.93;67.91;99404.47;5079746;28;20210;-52
2022/04/11 07:37:38;;;;;;;2.10;1.23;;;;;;;12.81;69.32;99413.63;5070736;28;20286;-52
2022/04/11 07:40:08;;;;;;;1.60;1.20;;;;;;;12.64;67.55;99410.84;5071810;28;20200;-53
2022/04/11 07:42:35;;;;;;;1.83;1.60;;;;;;;12.47;68.86;99419.28;5071337;28;20224;-53
2022/04/11 07:45:02;;;;;;;2.40;1.40;;;;;;;12.26;69.69;99413.16;5071548;28;20655;-52
2022/04/11 07:47:28;;;;;;;1.40;1.20;;;;;;;12.03;69.49;99422.69;5079053;28;20793;-53
2022/04/11 07:49:55;;;;;;;0.80;0.80;;;;;;;11.84;70.88;99419.91;5081029;28;20192;-52
2022/04/11 07:52:23;;;;;;;1.60;1.20;;;;;;;11.83;70.93;99439.88;5076588;28;20199;-53
2022/04/11 07:54:50;;;;;;;1.00;1.00;;;;;;;11.70;72.68;99437.72;5080657;28;20272;-52
2022/04/11 07:57:18;;;;;;;1.80;0.80;;;;;;;11.48;72.24;99432.41;5081923;28;20597;-53
2022/04/11 07:59:45;;;;;;;0.80;0.80;;;;;;;11.36;72.31;99438.84;5074191;28;20200;-53
2022/04/11 08:02:12;;;;;;;1.50;1.00;;;;;;;11.26;74.52;99438.31;5071050;28;20196;-52
2022/04/11 08:04:39;;;;;;;1.73;1.30;;;;;;;11.18;75.29;99447.22;5070900;28;20198;-52
2022/04/11 08:07:06;;;;;;;1.30;1.30;;;;;;;11.18;75.53;99442.03;5070930;28;20195;-52
2022/04/11 08:09:33;;;;;;;4.83;1.70;;;;;;;11.25;76.10;99452.19;5071008;28;20676;-52
2022/04/11 08:12:00;;;;;;;2.47;1.60;;;;;;;11.36;75.14;99449.25;5071895;28;20206;-52
2022/04/11 08:14:29;;;;;;;2.57;1.50;;;;;;;11.33;76.42;99453.69;5072562;28;20227;-53
2022/04/11 08:17:00;;;;;;;2.67;1.50;;;;;;;11.26;76.21;99464.28;5076191;28;20219;-51
2022/04/11 08:19:27;;;;;;;1.20;1.20;;;;;;;11.32;74.73;99450.22;5078615;28;20219;-52
2022/04/11 08:21:53;;;;;;;1.90;1.30;;;;;;;11.46;74.46;99458.44;5069492;28;20224;-52
2022/04/11 08:24:20;;;;;;;3.23;1.43;;;;;;;11.36;74.14;99454.44;5070009;28;20235;-53
2022/04/11 08:26:47;;;;;;;1.40;1.40;;;;;;;11.45;73.04;99456.72;5093741;28;20245;-52
2022/04/11 08:29:15;;;;;;;3.33;1.60;;;;;;;11.63;72.17;99458.69;5110454;28;20225;-52
2022/04/11 08:31:43;;;;;;;3.63;1.60;;;;;;;11.97;71.70;99465.38;5110277;28;20222;-53
2022/04/11 08:34:10;;;;;;;2.00;1.33;;;;;;;12.62;68.64;99462.13;5110696;28;20214;-51
2022/04/11 08:36:37;;;;;;;2.13;1.93;;;;;;;14.13;64.31;99470.66;5109703;28;20259;-53
2022/04/11 08:39:04;;;;;;;2.03;1.30;;;;;;;14.85;59.98;99470.06;5111306;28;20214;-51
2022/04/11 08:41:34;;;;;;;2.30;2.10;;;;;;;16.04;57.17;99477.25;5122720;27;20317;-52
2022/04/11 08:44:04;;;;;;;2.70;1.70;;;;;;;16.18;56.01;99482.63;5112256;27;20684;-52
2022/04/11 08:46:32;;;;;;;2.43;1.40;;;;;;;15.97;54.68;99471.50;5110461;28;20269;-53
2022/04/11 08:49:02;;;;;;;1.20;1.10;;;;;;;15.04;54.84;99473.47;5110767;28;20221;-51
2022/04/11 08:51:32;;;;;;;6.97;1.57;;;;;;;14.46;57.81;99489.25;5109728;28;20811;-52
2022/04/11 08:54:00;;;;;;;2.40;2.20;;;;;;;14.24;60.96;99483.25;5110430;28;20305;-53
2022/04/11 08:56:28;;;;;;;2.70;2.40;;;;;;;14.19;60.79;99480.00;5110033;28;20233;-53
2022/04/11 08:58:55;;;;;;;2.20;2.00;;;;;;;14.21;61.09;99482.56;5110461;28;20726;-55
2022/04/11 09:01:22;;;;;;;2.10;2.00;;;;;;;14.09;61.20;99486.56;5112745;27;20245;-52
2022/04/11 09:03:50;;;;;;;2.50;2.30;;;;;;;13.69;61.42;99496.06;5116906;27;20217;-53
2022/04/11 09:06:19;;;;;;;2.67;2.13;;;;;;;13.34;62.27;99488.84;5131081;27;20206;-53
2022/04/11 09:08:51;;;;;;;2.47;1.93;;;;;;;13.16;61.26;99497.41;5114035;27;20191;-52
2022/04/11 09:11:28;;;;;;;1.93;1.83;;;;;;;13.29;60.32;99501.22;5097826;28;20224;-53
2022/04/11 09:13:55;;;;;;;2.30;2.10;;;;;;;13.59;60.61;99510.41;5098280;28;20197;-52
2022/04/11 09:16:22;;;;;;;2.27;2.07;;;;;;;13.41;60.61;99505.94;5099979;28;20186;-52
2022/04/11 09:18:51;;;;;;;2.10;2.00;;;;;;;13.42;60.74;99521.53;5098736;28;20196;-53
2022/04/11 09:21:21;;;;;;;2.67;2.33;;;;;;;13.23;60.67;99517.09;5098058;28;20640;-52
2022/04/11 09:23:48;;;;;;;2.60;2.40;;;;;;;13.08;60.50;99519.38;5099367;28;20716;-53
2022/04/11 09:26:20;;;;;;;2.90;2.50;;;;;;;12.91;61.56;99528.72;5099569;28;20227;-52
2022/04/11 09:29:01;;;;;;;3.00;2.43;;;;;;;12.78;61.01;99530.94;5101839;28;20201;-53
2022/04/11 09:31:28;;;;;;;2.80;2.60;;;;;;;12.67;61.59;99517.47;5114482;28;20224;-52
2022/04/11 09:33:55;;;;;;;2.80;2.60;;;;;;;12.71;61.66;99534.69;5099536;28;20215;-53
2022/04/11 09:36:24;;;;;;;2.93;2.60;;;;;;;12.65;61.92;99548.78;5097561;28;20197;-52
2022/04/11 09:39:00;;;;;;;3.30;3.10;;;;;;;12.66;60.97;99549.63;5098583;28;20198;-52
2022/04/11 09:41:28;;;;;;;3.10;2.90;;;;;;;12.65;60.97;99556.59;5101304;28;20212;-54
2022/04/11 09:43:56;;;;;;;2.80;2.60;;;;;;;12.56;61.14;99549.13;5103393;28;20215;-53
2022/04/11 09:46:23;;;;;;;3.70;3.40;;;;;;;12.52;61.47;99559.72;5104693;28;20642;-53
2022/04/11 09:48:52;;;;;;;3.20;3.00;;;;;;;12.36;62.58;99575.88;5103031;28;20622;-53
2022/04/11 09:51:19;;;;;;;3.93;3.30;;;;;;;12.35;63.07;99566.34;5103855;28;20571;-53
2022/04/11 09:53:47;;;;;;;3.50;3.20;;;;;;;12.29;63.10;99539.72;5102124;28;20577;-53
2022/04/11 09:56:14;;;;;;;3.60;3.30;;;;;;;12.33;63.30;99575.97;5102142;28;20198;-53
2022/04/11 09:58:42;;;;;;;3.73;3.40;;;;;;;12.41;63.05;99572.28;5103560;28;20990;-52
2022/04/11 10:01:09;;;;;;;3.20;3.00;;;;;;;12.26;62.00;99578.84;5102381;28;20206;-53
2022/04/11 10:03:37;;;;;;;3.30;3.10;;;;;;;12.22;62.27;99577.25;5110707;27;20214;-52
2022/04/11 10:06:05;;;;;;;2.93;2.83;;;;;;;12.26;62.43;99579.69;5103786;28;20263;-52
2022/04/11 10:08:33;;;;;;;2.70;2.60;;;;;;;12.39;63.00;99585.31;5103548;28;20666;-52
2022/04/11 10:11:04;;;;;;;3.50;3.20;;;;;;;12.39;63.07;99576.66;5102844;28;20671;-52
2022/04/11 10:13:31;;;;;;;3.73;3.20;;;;;;;12.45;63.34;99584.25;5101127;28;20199;-51
2022/04/11 10:15:59;;;;;;;3.90;3.50;;;;;;;12.54;62.67;99587.38;5101280;28;20203;-52
2022/04/11 10:18:27;;;;;;;5.53;3.17;;;;;;;12.45;62.58;99586.84;5102645;28;20191;-53
2022/04/11 10:20:58;;;;;;;3.50;3.20;;;;;;;12.39;61.41;99587.09;5102699;28;20223;-52
2022/04/11 10:23:31;;;;;;;3.10;2.90;;;;;;;12.20;60.99;99577.28;5103279;28;20210;-52
2022/04/11 10:26:03;;;;;;;2.87;2.67;;;;;;;12.31;61.31;99593.38;5103074;28;20219;-52
2022/04/11 10:28:31;;;;;;;3.30;2.93;;;;;;;12.36;61.37;99594.09;5103284;28;20697;-53
2022/04/11 10:31:09;;;;;;;6.50;3.80;;;;;;;12.55;61.91;99601.25;5103247;28;20218;-52
2022/04/11 10:33:43;;;;;;;4.70;4.20;;;;;;;12.76;61.61;99592.66;5102759;28;20213;-53
2022/04/11 10:36:35;;;;;;;5.77;3.37;;;;;;;12.69;60.53;99593.78;5102987;28;20680;-52
2022/04/11 10:39:25;;;;;;;4.20;3.90;;;;;;;12.82;59.49;99594.19;5103419;28;20195;-52
2022/04/11 10:42:25;;;;;;;5.00;3.30;;;;;;;12.76;59.08;99589.19;5100930;28;20198;-52
2022/04/11 10:44:56;;;;;;;3.70;3.40;;;;;;;12.83;59.44;99596.75;5102175;28;20268;-53
2022/04/11 10:47:34;;;;;;;4.27;3.73;;;;;;;12.88;60.34;99593.97;5100783;28;20655;-52
2022/04/11 10:50:23;;;;;;;4.67;3.13;;;;;;;13.12;60.62;99587.00;5100671;28;20661;-53
2022/04/11 10:53:07;;;;;;;12.67;8.30;;;;;;;13.14;59.07;99590.38;5102267;28;20191;-52
2022/04/11 10:55:34;;;;;;;8.57;5.77;;;;;;;13.25;59.28;99580.44;5103010;28;20199;-53
2022/04/11 10:58:01;;;;;;;20.33;7.90;;;;;;;13.51;58.72;99575.06;5102784;28;20221;-53
2022/04/11 11:00:31;;;;;;;13.57;5.40;;;;;;;13.79;57.77;99578.25;5100998;28;20210;-53
2022/04/11 11:03:13;;;;;;;3.90;3.60;;;;;;;13.98;56.32;99572.28;5100491;28;20361;-53
2022/04/11 11:05:43;;;;;;;9.50;5.73;;;;;;;14.10;56.91;99563.94;5102742;28;20191;-52
2022/04/11 11:08:35;;;;;;;4.60;4.17;;;;;;;14.14;56.51;99576.78;5101592;28;20190;-53
2022/04/11 11:11:20;;;;;;;5.90;5.00;;;;;;;14.13;56.43;99569.84;5102863;28;20202;-52
2022/04/11 11:13:48;;;;;;;5.70;4.23;;;;;;;14.26;56.38;99570.19;5102227;28;20205;-52
2022/04/11 11:16:37;;;;;;;8.63;7.30;;;;;;;14.38;56.72;99568.81;5102127;28;20247;-52
2022/04/11 11:19:12;;;;;;;8.03;6.27;;;;;;;14.72;54.79;99552.53;5105213;28;20206;-53
2022/04/11 11:21:58;;;;;;;5.07;4.00;;;;;;;14.92;53.53;99568.16;5102022;28;20240;-52
2022/04/11 11:24:25;;;;;;;9.03;3.40;;;;;;;15.02;50.45;99560.72;5101875;28;20206;-52
2022/04/11 11:26:54;;;;;;;4.23;3.83;;;;;;;15.08;49.62;99552.63;5100971;28;20318;-52
2022/04/11 11:29:23;;;;;;;4.20;2.97;;;;;;;15.32;47.24;99561.09;5099939;28;20192;-53
2022/04/11 11:31:53;;;;;;;3.10;2.80;;;;;;;15.39;46.88;99549.41;5101253;28;20575;-53
2022/04/11 11:34:21;;;;;;;4.63;2.80;;;;;;;15.44;46.84;99552.66;5101853;28;20195;-53
2022/04/11 11:36:49;;;;;;;3.27;3.07;;;;;;;15.42;45.56;99544.03;5100354;28;20202;-53
2022/04/11 11:39:17;;;;;;;3.17;2.93;;;;;;;15.42;47.02;99554.50;5100237;28;20281;-52